Time;durP1;ratioP1;P1;durP2;ratioP2;P2;SDS_P1;SDS_P2;PMS_P1;PMS_P2;Temp;Humidity;BMP_temperature;BMP_pressure;BME280_temperature;BME280_humidity;BME280_pressure;Samples;Min_cycle;Max_cycle;Signal;HPM_P1;HPM_P2
2022/01/28 00:01:20;;;;;;;43.50;24.27;;;;;;;;;;5073405;28;20020;-79
2022/01/28 00:03:46;;;;;;;45.75;24.35;;;;;;;;;;5070883;28;20398;-78
2022/01/28 00:06:13;;;;;;;43.03;24.77;;;;;;;;;;5069535;28;20372;-78
2022/01/28 00:08:39;;;;;;;46.85;25.88;;;;;;;;;;5071217;28;20029;-78
2022/01/28 00:11:05;;;;;;;49.90;27.52;;;;;;;;;;5071464;28;20028;-78
2022/01/28 00:13:37;;;;;;;45.97;24.55;;;;;;;;;;5073622;28;20398;-78
2022/01/28 00:17:07;;;;;;;46.85;25.85;;;;;;;;;;5070280;28;20370;-79
2022/01/28 00:19:12;;;;;;;46.10;25.63;;;;;;;;;;5066595;28;20052;-79
2022/01/28 00:38:13;;;;;;;50.90;24.45;;;;;;;;;;5054551;28;20026;-79
2022/01/28 00:40:39;;;;;;;46.67;25.63;;;;;;;;;;5070092;28;20028;-78
2022/01/28 00:43:06;;;;;;;48.15;25.50;;;;;;;;;;5071710;28;20043;-79
2022/01/28 00:45:32;;;;;;;48.83;25.77;;;;;;;;;;5069684;28;20028;-79
2022/01/28 00:47:59;;;;;;;49.53;24.95;;;;;;;;;;5069848;28;20498;-79
2022/01/28 00:50:25;;;;;;;43.85;24.90;;;;;;;;;;5069992;28;20031;-79
2022/01/28 00:52:51;;;;;;;51.25;26.33;;;;;;;;;;5072581;28;20039;-79
2022/01/28 00:55:18;;;;;;;45.30;25.23;;;;;;;;;;5070965;28;20385;-79
2022/01/28 00:57:44;;;;;;;45.28;24.95;;;;;;;;;;5069952;28;20406;-79
2022/01/28 01:00:11;;;;;;;44.13;24.40;;;;;;;;;;5068171;28;20036;-79
2022/01/28 01:02:38;;;;;;;45.85;25.67;;;;;;;;;;5069839;28;20062;-78
2022/01/28 01:05:05;;;;;;;48.65;26.60;;;;;;;;;;5070476;28;20382;-78
2022/01/28 01:07:31;;;;;;;50.50;25.75;;;;;;;;;;5072462;28;20021;-78
2022/01/28 01:09:58;;;;;;;45.40;25.20;;;;;;;;;;5071313;28;20019;-79
2022/01/28 01:12:26;;;;;;;45.10;25.55;;;;;;;;;;5069583;28;20478;-79
2022/01/28 01:14:53;;;;;;;46.17;24.58;;;;;;;;;;5069512;28;20019;-79
2022/01/28 01:17:34;;;;;;;46.03;24.63;;;;;;;;;;5069559;28;20043;-78
2022/01/28 01:22:53;;;;;;;50.45;25.02;;;;;;;;;;5068897;28;20035;-79
2022/01/28 01:25:26;;;;;;;45.17;25.00;;;;;;;;;;5070617;28;20031;-79
2022/01/28 01:27:55;;;;;;;50.83;26.73;;;;;;;;;;5068752;28;20066;-78
2022/01/28 01:30:23;;;;;;;52.90;25.83;;;;;;;;;;5069195;28;20031;-79
2022/01/28 01:32:49;;;;;;;45.75;24.80;;;;;;;;;;5067925;28;20479;-78
2022/01/28 01:35:15;;;;;;;48.10;25.88;;;;;;;;;;5069517;28;20031;-78
2022/01/28 01:37:42;;;;;;;45.38;25.00;;;;;;;;;;5072053;28;20024;-79
2022/01/28 01:40:09;;;;;;;47.85;24.45;;;;;;;;;;5069202;28;20042;-78
2022/01/28 01:53:30;;;;;;;46.70;25.05;;;;;;;;;;5029685;28;20031;-78
2022/01/28 01:55:57;;;;;;;51.83;26.63;;;;;;;;;;5029774;28;20047;-78
2022/01/28 01:58:30;;;;;;;43.95;23.50;;;;;;;;;;5029279;28;20021;-78
2022/01/28 02:00:57;;;;;;;49.30;24.50;;;;;;;;;;5029037;28;20072;-79
2022/01/28 02:03:23;;;;;;;50.75;24.67;;;;;;;;;;5029293;28;20029;-78
2022/01/28 02:05:50;;;;;;;44.22;23.83;;;;;;;;;;5029195;28;20021;-79
2022/01/28 02:08:16;;;;;;;34.60;18.02;;;;;;;;;;5029261;28;20056;-79
2022/01/28 02:10:42;;;;;;;30.95;17.65;;;;;;;;;;5029220;28;20040;-78
2022/01/28 02:13:08;;;;;;;29.60;16.75;;;;;;;;;;5029863;28;20033;-79
2022/01/28 02:15:35;;;;;;;28.00;16.52;;;;;;;;;;5029124;28;20549;-79
2022/01/28 02:18:01;;;;;;;29.00;16.30;;;;;;;;;;5029210;28;20030;-79
2022/01/28 02:20:33;;;;;;;31.50;16.40;;;;;;;;;;5029205;28;20033;-79
2022/01/28 02:23:00;;;;;;;30.20;16.42;;;;;;;;;;5048436;28;20494;-79
2022/01/28 02:25:29;;;;;;;28.88;16.17;;;;;;;;;;5070517;28;20036;-79
2022/01/28 02:27:58;;;;;;;30.67;17.05;;;;;;;;;;5069687;28;20048;-79
2022/01/28 02:30:26;;;;;;;28.92;15.75;;;;;;;;;;5067047;28;20055;-78
2022/01/28 02:32:58;;;;;;;32.20;17.00;;;;;;;;;;5068428;28;20017;-79
2022/01/28 02:35:24;;;;;;;28.33;15.73;;;;;;;;;;5068395;28;20534;-78
2022/01/28 02:37:51;;;;;;;30.48;16.42;;;;;;;;;;5070567;28;20390;-78
2022/01/28 02:40:17;;;;;;;27.88;15.88;;;;;;;;;;5068755;28;20050;-79
2022/01/28 02:42:55;;;;;;;28.88;16.52;;;;;;;;;;5068501;28;20025;-79
2022/01/28 02:45:33;;;;;;;26.85;15.30;;;;;;;;;;5068394;28;20024;-79
2022/01/28 02:48:03;;;;;;;30.23;16.30;;;;;;;;;;5068896;28;20016;-79
2022/01/28 02:50:36;;;;;;;35.92;17.33;;;;;;;;;;5068361;28;20418;-78
2022/01/28 02:53:06;;;;;;;29.95;17.05;;;;;;;;;;5069428;28;20039;-79
2022/01/28 02:55:38;;;;;;;32.93;17.73;;;;;;;;;;5070865;28;20013;-79
2022/01/28 02:58:20;;;;;;;32.25;17.20;;;;;;;;;;5068633;28;20036;-78
2022/01/28 03:00:47;;;;;;;30.05;16.13;;;;;;;;;;5068058;28;20444;-78
2022/01/28 03:03:15;;;;;;;28.25;15.65;;;;;;;;;;5068295;28;20028;-79
2022/01/28 03:05:41;;;;;;;30.65;16.33;;;;;;;;;;5069410;28;20495;-79
2022/01/28 03:08:08;;;;;;;26.55;15.13;;;;;;;;;;5052690;28;20035;-78
2022/01/28 03:15:34;;;;;;;33.05;16.60;;;;;;;;;;5071805;28;20440;-78
2022/01/28 03:18:18;;;;;;;34.25;17.88;;;;;;;;;;5071993;28;20026;-79
2022/01/28 03:20:58;;;;;;;29.27;16.92;;;;;;;;;;5071670;28;20391;-79
2022/01/28 03:23:24;;;;;;;34.37;16.53;;;;;;;;;;5071458;28;20025;-78
2022/01/28 03:25:51;;;;;;;31.73;16.58;;;;;;;;;;5073912;28;20269;-79
2022/01/28 03:28:20;;;;;;;31.88;16.73;;;;;;;;;;5072573;28;20024;-78
2022/01/28 03:30:46;;;;;;;35.08;17.35;;;;;;;;;;5071691;28;20081;-79
2022/01/28 03:33:13;;;;;;;28.90;16.42;;;;;;;;;;5071378;28;20032;-79
2022/01/28 03:35:39;;;;;;;27.58;16.58;;;;;;;;;;5071574;28;20023;-79
2022/01/28 03:38:10;;;;;;;27.20;15.32;;;;;;;;;;5071966;28;22341;-79
2022/01/28 03:40:37;;;;;;;26.67;16.08;;;;;;;;;;5071092;28;20085;-78
2022/01/28 03:43:04;;;;;;;32.72;15.75;;;;;;;;;;5072881;28;20392;-78
2022/01/28 03:45:31;;;;;;;28.08;15.82;;;;;;;;;;5072540;28;20029;-79
2022/01/28 03:47:57;;;;;;;28.70;15.90;;;;;;;;;;5071084;28;20021;-78
2022/01/28 03:50:23;;;;;;;29.95;15.52;;;;;;;;;;5071592;28;20035;-78
2022/01/28 03:52:50;;;;;;;28.27;15.73;;;;;;;;;;5073196;28;20029;-79
2022/01/28 03:55:16;;;;;;;29.98;15.23;;;;;;;;;;5072118;28;20058;-78
2022/01/28 03:57:42;;;;;;;29.55;15.55;;;;;;;;;;5071079;28;20110;-78
2022/01/28 04:00:10;;;;;;;27.20;15.52;;;;;;;;;;5070987;28;20036;-79
2022/01/28 04:02:40;;;;;;;28.73;16.42;;;;;;;;;;5071380;28;20017;-78
2022/01/28 04:13:25;;;;;;;28.77;15.77;;;;;;;;;;5072344;28;20029;-79
2022/01/28 04:16:16;;;;;;;26.73;14.38;;;;;;;;;;5070752;28;20364;-78
2022/01/28 04:18:38;;;;;;;28.80;14.93;;;;;;;;;;5070609;28;20045;-78
2022/01/28 04:21:04;;;;;;;31.27;14.75;;;;;;;;;;5070473;28;20027;-78
2022/01/28 04:23:30;;;;;;;27.20;15.27;;;;;;;;;;5071211;28;20024;-78
2022/01/28 04:25:57;;;;;;;25.67;15.10;;;;;;;;;;5072217;28;20101;-78
2022/01/28 04:28:23;;;;;;;26.25;14.20;;;;;;;;;;5072214;28;20042;-78
2022/01/28 04:30:50;;;;;;;26.50;15.15;;;;;;;;;;5070485;28;20029;-79
2022/01/28 04:33:16;;;;;;;27.27;14.13;;;;;;;;;;5070316;28;20021;-78
2022/01/28 04:35:45;;;;;;;25.95;15.07;;;;;;;;;;5070006;28;20509;-78
2022/01/28 04:38:27;;;;;;;28.08;14.13;;;;;;;;;;5070413;28;20040;-79
2022/01/28 04:41:45;;;;;;;26.67;15.07;;;;;;;;;;5072588;28;20055;-78
2022/01/28 04:43:52;;;;;;;25.17;14.55;;;;;;;;;;5066545;28;20037;-79
2022/01/28 04:49:36;;;;;;;34.05;15.38;;;;;;;;;;5064281;28;20042;-79
2022/01/28 04:55:30;;;;;;;29.75;15.18;;;;;;;;;;5030791;28;20044;-79
2022/01/28 05:03:21;;;;;;;31.85;15.77;;;;;;;;;;5013809;28;20031;-78
2022/01/28 05:14:11;;;;;;;31.33;16.92;;;;;;;;;;5030589;28;20059;-79
2022/01/28 05:26:55;;;;;;;38.78;19.17;;;;;;;;;;5053879;28;20059;-78
2022/01/28 05:29:23;;;;;;;34.05;17.02;;;;;;;;;;5055259;28;20476;-78
2022/01/28 05:31:49;;;;;;;38.55;19.38;;;;;;;;;;5071531;28;20035;-79
2022/01/28 05:34:16;;;;;;;55.25;23.30;;;;;;;;;;5068978;28;20025;-78
2022/01/28 05:36:42;;;;;;;56.55;23.63;;;;;;;;;;5069168;28;20024;-79
2022/01/28 05:39:08;;;;;;;47.40;22.35;;;;;;;;;;5069067;28;20032;-78
2022/01/28 05:41:35;;;;;;;43.53;21.77;;;;;;;;;;5070345;28;20020;-79
2022/01/28 05:44:02;;;;;;;48.92;22.95;;;;;;;;;;5070317;28;20508;-78
2022/01/28 05:46:29;;;;;;;48.60;21.00;;;;;;;;;;5071479;28;20020;-78
2022/01/28 05:48:57;;;;;;;51.63;22.15;;;;;;;;;;5068919;28;20030;-79
2022/01/28 05:51:23;;;;;;;46.47;21.05;;;;;;;;;;5068742;28;20033;-79
2022/01/28 05:53:50;;;;;;;50.60;22.67;;;;;;;;;;5068551;28;20017;-79
2022/01/28 05:56:16;;;;;;;50.92;21.40;;;;;;;;;;5068828;28;20040;-78
2022/01/28 05:58:42;;;;;;;52.15;23.63;;;;;;;;;;5071836;28;20046;-78
2022/01/28 06:01:09;;;;;;;48.97;23.27;;;;;;;;;;5069648;28;20037;-78
2022/01/28 06:03:35;;;;;;;56.42;24.98;;;;;;;;;;5068146;28;20029;-78
2022/01/28 06:06:01;;;;;;;50.38;23.30;;;;;;;;;;5067411;28;20036;-79
2022/01/28 06:08:28;;;;;;;56.97;24.70;;;;;;;;;;5068642;28;20025;-79
2022/01/28 06:10:54;;;;;;;52.88;23.00;;;;;;;;;;5070754;28;20020;-79
2022/01/28 06:13:20;;;;;;;54.67;23.02;;;;;;;;;;5070068;28;20039;-78
2022/01/28 06:15:47;;;;;;;57.30;23.13;;;;;;;;;;5068521;28;20020;-78
2022/01/28 06:18:13;;;;;;;59.47;26.05;;;;;;;;;;5068138;28;20028;-78
2022/01/28 06:20:39;;;;;;;67.95;27.63;;;;;;;;;;5069904;28;20028;-78
2022/01/28 06:23:06;;;;;;;67.10;26.77;;;;;;;;;;5069270;28;20028;-78
2022/01/28 06:25:32;;;;;;;64.45;26.98;;;;;;;;;;5071266;28;20069;-79
2022/01/28 06:27:58;;;;;;;65.63;27.38;;;;;;;;;;5068356;28;20037;-78
2022/01/28 06:30:25;;;;;;;76.75;29.08;;;;;;;;;;5068357;28;20035;-78
2022/01/28 06:32:52;;;;;;;72.03;29.15;;;;;;;;;;5067948;28;20027;-78
2022/01/28 06:35:18;;;;;;;73.15;29.52;;;;;;;;;;5068351;28;20017;-78
2022/01/28 06:37:45;;;;;;;69.28;30.35;;;;;;;;;;5070018;28;20032;-78
2022/01/28 06:40:13;;;;;;;70.00;30.33;;;;;;;;;;5070251;28;20062;-79
2022/01/28 06:42:40;;;;;;;80.22;31.58;;;;;;;;;;5068269;28;20025;-78
2022/01/28 06:45:06;;;;;;;77.82;31.38;;;;;;;;;;5068832;28;20040;-78
2022/01/28 06:47:35;;;;;;;78.53;30.75;;;;;;;;;;5070760;28;20024;-78
2022/01/28 06:50:02;;;;;;;75.78;31.52;;;;;;;;;;5073752;28;20021;-79
2022/01/28 06:52:29;;;;;;;82.63;31.98;;;;;;;;;;5074648;28;20035;-78
2022/01/28 06:54:55;;;;;;;76.85;32.33;;;;;;;;;;5071071;28;20044;-78
2022/01/28 06:57:21;;;;;;;79.63;32.30;;;;;;;;;;5072083;28;20482;-78
2022/01/28 06:59:48;;;;;;;93.28;35.55;;;;;;;;;;5073524;28;20032;-78
2022/01/28 07:02:14;;;;;;;78.78;33.90;;;;;;;;;;5071767;28;20035;-78
2022/01/28 07:04:40;;;;;;;80.85;35.30;;;;;;;;;;5075425;28;20502;-79
2022/01/28 07:07:07;;;;;;;74.90;33.55;;;;;;;;;;5072221;28;20029;-79
2022/01/28 07:09:35;;;;;;;87.80;36.15;;;;;;;;;;5071832;28;20462;-79
2022/01/28 07:12:01;;;;;;;73.50;32.83;;;;;;;;;;5072112;28;20009;-78
2022/01/28 07:14:28;;;;;;;71.55;33.85;;;;;;;;;;5071774;28;20032;-78
2022/01/28 07:16:54;;;;;;;73.82;35.22;;;;;;;;;;5074017;28;20503;-78
2022/01/28 07:19:21;;;;;;;80.10;35.30;;;;;;;;;;5072489;28;20036;-78
2022/01/28 07:21:47;;;;;;;61.78;32.35;;;;;;;;;;5070860;28;20398;-78
2022/01/28 07:24:13;;;;;;;75.20;35.33;;;;;;;;;;5070984;28;20111;-78
2022/01/28 07:26:40;;;;;;;67.68;33.90;;;;;;;;;;5070976;28;20148;-79
2022/01/28 07:29:09;;;;;;;73.00;34.90;;;;;;;;;;5071140;28;20025;-77
2022/01/28 07:31:37;;;;;;;70.93;34.92;;;;;;;;;;5077151;28;20024;-78
2022/01/28 07:34:03;;;;;;;66.38;33.42;;;;;;;;;;5070432;28;20035;-78
2022/01/28 07:36:30;;;;;;;68.22;35.25;;;;;;;;;;5070331;28;20020;-79
2022/01/28 07:38:56;;;;;;;69.82;35.70;;;;;;;;;;5071600;28;20032;-78
2022/01/28 07:41:22;;;;;;;64.05;34.35;;;;;;;;;;5070597;28;20040;-79
2022/01/28 07:43:49;;;;;;;68.32;34.05;;;;;;;;;;5072847;28;20027;-79
2022/01/28 07:46:15;;;;;;;64.97;34.13;;;;;;;;;;5071156;28;20651;-79
2022/01/28 07:48:42;;;;;;;65.07;33.33;;;;;;;;;;5070842;28;20517;-77
2022/01/28 07:51:08;;;;;;;74.05;34.10;;;;;;;;;;5071171;28;20028;-78
2022/01/28 07:53:34;;;;;;;64.65;33.00;;;;;;;;;;5072462;28;20479;-79
2022/01/28 07:56:01;;;;;;;58.38;30.50;;;;;;;;;;5070057;28;20040;-79
2022/01/28 07:58:27;;;;;;;59.63;31.50;;;;;;;;;;5104086;28;20394;-78
2022/01/28 08:00:54;;;;;;;47.20;28.02;;;;;;;;;;5069587;28;20028;-78
2022/01/28 08:03:20;;;;;;;51.95;28.35;;;;;;;;;;5067216;28;20024;-79
2022/01/28 08:05:46;;;;;;;52.28;28.92;;;;;;;;;;5069389;28;20398;-79
2022/01/28 08:08:13;;;;;;;52.90;29.90;;;;;;;;;;5069264;28;20017;-79
2022/01/28 08:10:40;;;;;;;52.92;29.15;;;;;;;;;;5073470;28;20017;-79
2022/01/28 08:13:06;;;;;;;53.88;29.17;;;;;;;;;;5073099;28;20036;-78
2022/01/28 08:15:34;;;;;;;56.35;30.33;;;;;;;;;;5074347;28;20020;-79
2022/01/28 08:18:01;;;;;;;54.45;30.20;;;;;;;;;;5071426;28;20028;-78
2022/01/28 08:20:27;;;;;;;51.40;28.10;;;;;;;;;;5068543;28;20039;-78
2022/01/28 08:22:57;;;;;;;51.15;29.50;;;;;;;;;;5072354;28;20020;-78
2022/01/28 08:25:24;;;;;;;46.75;26.77;;;;;;;;;;5071363;28;20013;-79
2022/01/28 08:27:51;;;;;;;49.85;29.35;;;;;;;;;;5068971;28;20441;-77
2022/01/28 08:30:19;;;;;;;48.03;25.48;;;;;;;;;;5067777;28;20028;-79
2022/01/28 08:32:46;;;;;;;49.42;29.05;;;;;;;;;;5069141;28;20028;-78
2022/01/28 08:35:12;;;;;;;45.38;26.88;;;;;;;;;;5069920;28;20019;-79
2022/01/28 08:37:39;;;;;;;47.25;26.58;;;;;;;;;;5070927;28;20120;-78
2022/01/28 08:40:06;;;;;;;44.92;25.45;;;;;;;;;;5069766;28;20845;-79
2022/01/28 08:42:32;;;;;;;42.38;23.67;;;;;;;;;;5067823;28;20021;-79
2022/01/28 08:44:59;;;;;;;45.22;25.33;;;;;;;;;;5070200;28;20024;-78
2022/01/28 08:47:25;;;;;;;43.30;25.45;;;;;;;;;;5068931;28;20025;-79
2022/01/28 08:49:52;;;;;;;46.70;24.85;;;;;;;;;;5070267;28;20089;-78
2022/01/28 08:52:18;;;;;;;47.83;27.48;;;;;;;;;;5068972;28;20033;-78
2022/01/28 08:54:45;;;;;;;47.65;24.40;;;;;;;;;;5068343;28;20066;-79
2022/01/28 08:57:12;;;;;;;44.20;25.08;;;;;;;;;;5067610;28;20140;-79
2022/01/28 08:59:43;;;;;;;58.33;30.10;;;;;;;;;;5067927;28;20047;-79
2022/01/28 09:02:09;;;;;;;47.55;28.23;;;;;;;;;;5052849;28;20009;-78
2022/01/28 09:04:36;;;;;;;45.13;25.70;;;;;;;;;;5069765;28;20040;-79
2022/01/28 09:07:02;;;;;;;44.40;26.45;;;;;;;;;;5070857;28;20032;-79
2022/01/28 09:09:29;;;;;;;47.80;27.35;;;;;;;;;;5067586;28;20017;-79
2022/01/28 09:14:26;;;;;;;43.75;25.85;;;;;;;;;;5068489;28;20665;-79
2022/01/28 09:16:52;;;;;;;44.75;26.55;;;;;;;;;;5070046;28;20394;-79
2022/01/28 09:19:19;;;;;;;41.67;24.83;;;;;;;;;;5068692;28;20831;-78
2022/01/28 09:21:45;;;;;;;42.53;24.60;;;;;;;;;;5067659;28;20037;-78
2022/01/28 09:24:12;;;;;;;40.70;23.85;;;;;;;;;;5068014;28;20024;-79
2022/01/28 09:26:38;;;;;;;37.03;22.33;;;;;;;;;;5067323;28;20044;-78
2022/01/28 09:29:05;;;;;;;35.92;22.10;;;;;;;;;;5068305;28;20025;-79
2022/01/28 09:31:31;;;;;;;40.33;25.20;;;;;;;;;;5069941;28;20505;-79
2022/01/28 09:33:57;;;;;;;36.00;21.25;;;;;;;;;;5067721;28;20487;-79
2022/01/28 09:36:24;;;;;;;44.67;23.15;;;;;;;;;;5068863;28;20387;-78
2022/01/28 09:38:50;;;;;;;33.55;20.80;;;;;;;;;;5067078;28;20024;-78
2022/01/28 09:41:17;;;;;;;31.05;20.15;;;;;;;;;;5067238;28;20029;-78
2022/01/28 09:43:44;;;;;;;33.30;20.88;;;;;;;;;;5069967;28;20031;-79
2022/01/28 09:46:11;;;;;;;31.30;20.13;;;;;;;;;;5066970;28;20035;-79
2022/01/28 09:48:38;;;;;;;35.25;21.17;;;;;;;;;;5066672;28;20021;-78
2022/01/28 09:51:04;;;;;;;32.22;19.58;;;;;;;;;;5068025;28;20028;-79
2022/01/28 09:53:31;;;;;;;29.33;19.95;;;;;;;;;;5067765;28;20013;-79
2022/01/28 09:55:58;;;;;;;34.67;20.63;;;;;;;;;;5066960;28;20394;-79
2022/01/28 09:58:24;;;;;;;32.05;20.63;;;;;;;;;;5065568;28;20025;-79
2022/01/28 10:00:51;;;;;;;30.67;19.20;;;;;;;;;;5065630;28;20069;-77
2022/01/28 10:03:18;;;;;;;30.77;18.42;;;;;;;;;;5066648;28;20491;-78
2022/01/28 10:05:50;;;;;;;34.15;21.02;;;;;;;;;;5070786;28;20024;-77
2022/01/28 10:08:17;;;;;;;32.25;19.90;;;;;;;;;;5066791;28;20032;-76
2022/01/28 10:10:45;;;;;;;31.08;19.73;;;;;;;;;;5068956;28;20024;-78
2022/01/28 10:13:16;;;;;;;35.25;20.95;;;;;;;;;;5069381;28;20093;-78
2022/01/28 10:16:12;;;;;;;30.02;19.77;;;;;;;;;;5069797;28;20013;-78
2022/01/28 10:18:38;;;;;;;34.78;20.02;;;;;;;;;;5050358;28;20036;-78
2022/01/28 10:21:35;;;;;;;31.33;19.77;;;;;;;;;;5068271;28;20044;-77
2022/01/28 10:24:04;;;;;;;31.42;18.50;;;;;;;;;;5051654;28;20064;-78
2022/01/28 10:26:34;;;;;;;30.23;18.88;;;;;;;;;;5066947;28;20041;-78
2022/01/28 10:29:01;;;;;;;32.17;19.85;;;;;;;;;;5067676;28;20825;-78
2022/01/28 10:31:34;;;;;;;37.97;20.55;;;;;;;;;;5068890;28;20036;-78
2022/01/28 10:34:11;;;;;;;30.05;18.60;;;;;;;;;;5067032;28;20012;-78
2022/01/28 10:36:38;;;;;;;30.98;18.55;;;;;;;;;;5067174;28;20528;-77
2022/01/28 10:39:04;;;;;;;31.02;19.00;;;;;;;;;;5066170;28;20034;-77
2022/01/28 10:41:30;;;;;;;26.85;16.58;;;;;;;;;;5066520;28;20013;-76
2022/01/28 10:43:58;;;;;;;26.95;17.80;;;;;;;;;;5069272;28;20021;-77
2022/01/28 10:46:26;;;;;;;32.28;19.63;;;;;;;;;;5067488;28;20058;-76
2022/01/28 10:48:52;;;;;;;30.17;19.33;;;;;;;;;;5067916;28;20450;-78
2022/01/28 10:51:19;;;;;;;29.80;18.85;;;;;;;;;;5067313;28;20032;-77
2022/01/28 10:54:04;;;;;;;29.27;18.38;;;;;;;;;;5066140;28;20526;-77
2022/01/28 10:56:30;;;;;;;36.20;22.70;;;;;;;;;;5065654;28;20032;-76
2022/01/28 10:58:57;;;;;;;25.10;17.00;;;;;;;;;;5068169;28;20029;-76
2022/01/28 11:01:25;;;;;;;27.08;17.27;;;;;;;;;;5068865;28;20028;-77
2022/01/28 11:03:54;;;;;;;33.42;21.17;;;;;;;;;;5067004;28;20017;-78
2022/01/28 11:06:21;;;;;;;33.15;22.17;;;;;;;;;;5067506;28;20035;-77
2022/01/28 11:08:47;;;;;;;28.02;18.85;;;;;;;;;;5066564;28;20035;-77
2022/01/28 11:11:14;;;;;;;24.88;16.80;;;;;;;;;;5066946;28;20421;-77
2022/01/28 11:13:41;;;;;;;23.08;16.50;;;;;;;;;;5070234;28;20035;-77
2022/01/28 11:16:08;;;;;;;23.35;15.90;;;;;;;;;;5069128;28;20028;-77
2022/01/28 11:18:34;;;;;;;25.50;17.20;;;;;;;;;;5067313;28;20016;-77
2022/01/28 11:21:06;;;;;;;27.77;17.10;;;;;;;;;;5067012;28;20040;-77
2022/01/28 11:23:41;;;;;;;22.83;15.45;;;;;;;;;;5066924;28;20023;-77
2022/01/28 11:26:26;;;;;;;23.23;16.38;;;;;;;;;;5067906;28;20037;-77
2022/01/28 11:28:57;;;;;;;24.35;16.67;;;;;;;;;;5067301;28;20031;-77
2022/01/28 11:31:42;;;;;;;25.77;17.98;;;;;;;;;;5085386;28;20036;-77
2022/01/28 11:34:24;;;;;;;24.98;16.98;;;;;;;;;;5072055;28;20031;-77
2022/01/28 11:36:55;;;;;;;20.98;14.75;;;;;;;;;;5070005;28;20025;-77
2022/01/28 11:39:35;;;;;;;23.17;15.55;;;;;;;;;;5070405;28;20038;-77
2022/01/28 11:42:03;;;;;;;21.25;14.95;;;;;;;;;;5070561;28;20017;-77
2022/01/28 11:44:40;;;;;;;24.10;15.85;;;;;;;;;;5070602;28;20035;-77
2022/01/28 11:47:08;;;;;;;23.98;16.58;;;;;;;;;;5071497;28;20550;-77
2022/01/28 11:49:52;;;;;;;36.17;20.45;;;;;;;;;;5073676;28;20491;-77
2022/01/28 11:52:54;;;;;;;38.05;22.23;;;;;;;;;;5073166;28;20027;-77
2022/01/28 11:55:21;;;;;;;36.75;23.88;;;;;;;;;;5011585;28;20037;-76
2022/01/28 11:57:57;;;;;;;22.40;15.35;;;;;;;;;;5011428;28;20574;-77
2022/01/28 12:00:26;;;;;;;30.40;20.13;;;;;;;;;;5011265;28;20041;-77
2022/01/28 12:02:53;;;;;;;36.67;24.77;;;;;;;;;;5010860;28;20032;-77
2022/01/28 12:05:26;;;;;;;28.35;20.48;;;;;;;;;;5010666;28;20555;-77
2022/01/28 12:07:54;;;;;;;25.35;16.90;;;;;;;;;;5011510;28;20030;-77
2022/01/28 12:10:20;;;;;;;24.55;16.50;;;;;;;;;;5010895;28;20042;-77
2022/01/28 12:13:12;;;;;;;24.10;16.65;;;;;;;;;;5010927;28;20026;-77
2022/01/28 12:16:09;;;;;;;36.03;22.10;;;;;;;;;;5010788;28;20044;-77
2022/01/28 12:18:44;;;;;;;24.92;16.13;;;;;;;;;;5011105;28;20026;-76
2022/01/28 12:21:15;;;;;;;23.85;16.33;;;;;;;;;;5010647;28;20053;-77
2022/01/28 12:23:43;;;;;;;25.33;16.65;;;;;;;;;;5011152;28;20030;-77
2022/01/28 12:26:16;;;;;;;28.92;18.25;;;;;;;;;;4994886;28;20373;-77
2022/01/28 12:28:44;;;;;;;23.38;16.17;;;;;;;;;;5007318;28;20052;-76
2022/01/28 12:31:12;;;;;;;23.25;16.77;;;;;;;;;;5070204;28;20064;-77
2022/01/28 12:33:40;;;;;;;25.35;16.38;;;;;;;;;;5069804;28;20030;-77
2022/01/28 12:36:11;;;;;;;23.08;15.70;;;;;;;;;;5068812;28;20031;-77
2022/01/28 12:38:42;;;;;;;29.48;17.48;;;;;;;;;;5069678;28;20031;-77
2022/01/28 12:41:09;;;;;;;25.35;16.13;;;;;;;;;;5069496;28;20040;-77
2022/01/28 12:43:37;;;;;;;22.17;14.18;;;;;;;;;;5084362;28;20486;-77
2022/01/28 12:46:07;;;;;;;20.80;14.57;;;;;;;;;;5069444;28;20398;-77
2022/01/28 12:48:33;;;;;;;26.95;17.98;;;;;;;;;;5068237;28;20029;-77
2022/01/28 12:51:01;;;;;;;24.88;16.60;;;;;;;;;;5069040;28;20019;-77
2022/01/28 12:53:31;;;;;;;19.92;14.25;;;;;;;;;;5067626;28;20070;-77
2022/01/28 12:55:59;;;;;;;22.02;14.60;;;;;;;;;;5082515;28;20513;-77
2022/01/28 12:58:40;;;;;;;19.98;13.98;;;;;;;;;;5070280;28;20031;-77
2022/01/28 13:01:07;;;;;;;22.02;14.50;;;;;;;;;;5068202;28;20051;-76
2022/01/28 13:03:38;;;;;;;20.58;14.27;;;;;;;;;;5067110;28;20037;-77
2022/01/28 13:06:27;;;;;;;23.38;14.90;;;;;;;;;;5067948;28;20033;-77
2022/01/28 13:08:54;;;;;;;21.08;14.57;;;;;;;;;;5067023;28;20505;-77
2022/01/28 13:11:20;;;;;;;19.95;14.43;;;;;;;;;;5068382;28;20025;-77
2022/01/28 13:13:47;;;;;;;20.40;14.25;;;;;;;;;;5070678;28;20394;-77
2022/01/28 13:16:13;;;;;;;20.42;13.93;;;;;;;;;;5068175;28;20037;-77
2022/01/28 13:18:54;;;;;;;21.83;15.05;;;;;;;;;;5066666;28;20031;-77
2022/01/28 13:21:21;;;;;;;23.95;14.55;;;;;;;;;;5067938;28;20028;-77
2022/01/28 13:23:47;;;;;;;19.60;13.48;;;;;;;;;;5067770;28;20043;-77
2022/01/28 13:26:14;;;;;;;19.77;14.65;;;;;;;;;;5067580;28;20035;-76
2022/01/28 13:28:41;;;;;;;18.48;13.82;;;;;;;;;;5071550;28;20035;-77
2022/01/28 13:31:07;;;;;;;22.08;13.88;;;;;;;;;;5103765;28;20028;-77
2022/01/28 13:33:33;;;;;;;20.58;14.73;;;;;;;;;;5070562;28;20023;-77
2022/01/28 13:36:01;;;;;;;20.15;14.57;;;;;;;;;;5066477;28;20029;-76
2022/01/28 13:38:35;;;;;;;22.48;15.63;;;;;;;;;;5073554;28;20020;-77
2022/01/28 13:41:18;;;;;;;20.27;13.80;;;;;;;;;;5069013;28;20402;-77
2022/01/28 13:43:44;;;;;;;20.23;13.90;;;;;;;;;;5067081;28;20028;-77
2022/01/28 13:46:14;;;;;;;20.88;14.55;;;;;;;;;;5068045;28;20036;-77
2022/01/28 13:48:41;;;;;;;20.35;14.20;;;;;;;;;;5067339;28;20023;-76
2022/01/28 13:51:09;;;;;;;18.73;13.23;;;;;;;;;;5067417;28;20027;-76
2022/01/28 13:56:33;;;;;;;22.95;15.23;;;;;;;;;;5052993;28;20028;-77
2022/01/28 13:59:00;;;;;;;30.13;19.33;;;;;;;;;;5069007;28;20019;-77
2022/01/28 14:01:28;;;;;;;28.48;18.13;;;;;;;;;;5068987;28;20085;-77
2022/01/28 14:03:55;;;;;;;26.50;16.55;;;;;;;;;;5067026;28;20027;-77
2022/01/28 14:06:42;;;;;;;28.67;18.60;;;;;;;;;;5066986;28;20050;-76
2022/01/28 14:09:11;;;;;;;33.20;19.80;;;;;;;;;;5067547;28;20036;-76
2022/01/28 14:11:43;;;;;;;20.08;14.90;;;;;;;;;;5066971;28;20032;-76
2022/01/28 14:14:46;;;;;;;29.35;18.60;;;;;;;;;;5067468;28;20502;-76
2022/01/28 14:17:07;;;;;;;31.90;19.38;;;;;;;;;;5066905;28;20040;-76
2022/01/28 14:19:34;;;;;;;22.23;15.45;;;;;;;;;;5068576;28;20042;-76
2022/01/28 14:22:01;;;;;;;22.00;15.65;;;;;;;;;;5066937;28;20059;-76
2022/01/28 14:24:29;;;;;;;23.70;15.60;;;;;;;;;;5082600;28;20036;-76
2022/01/28 14:27:12;;;;;;;22.02;13.88;;;;;;;;;;5065228;28;20040;-77
2022/01/28 14:32:08;;;;;;;21.67;14.07;;;;;;;;;;5075060;28;20027;-77
2022/01/28 14:34:35;;;;;;;20.13;14.57;;;;;;;;;;5070085;28;20024;-76
2022/01/28 14:37:04;;;;;;;21.73;14.90;;;;;;;;;;5066898;28;20402;-77
2022/01/28 14:39:31;;;;;;;22.58;14.65;;;;;;;;;;5066705;28;20050;-76
2022/01/28 14:42:02;;;;;;;21.40;14.48;;;;;;;;;;5066660;28;20050;-77
2022/01/28 14:44:29;;;;;;;19.58;14.57;;;;;;;;;;5065156;28;20077;-76
2022/01/28 14:46:56;;;;;;;20.67;14.73;;;;;;;;;;5065234;28;20512;-76
2022/01/28 14:49:22;;;;;;;20.88;13.50;;;;;;;;;;5064487;28;20024;-77
2022/01/28 14:51:55;;;;;;;20.13;13.73;;;;;;;;;;5066471;28;20620;-76
2022/01/28 14:54:27;;;;;;;22.48;14.68;;;;;;;;;;5066704;28;20031;-76
2022/01/28 14:56:54;;;;;;;19.20;14.02;;;;;;;;;;5063594;28;20047;-76
2022/01/28 14:59:21;;;;;;;20.92;13.75;;;;;;;;;;5066006;28;20035;-76
2022/01/28 15:01:48;;;;;;;20.63;13.45;;;;;;;;;;5068584;28;20036;-77
2022/01/28 15:04:14;;;;;;;19.73;12.90;;;;;;;;;;5064206;28;20028;-76
2022/01/28 15:06:42;;;;;;;19.52;12.90;;;;;;;;;;5069543;28;20023;-77
2022/01/28 15:09:10;;;;;;;16.98;12.63;;;;;;;;;;5070186;28;20582;-76
2022/01/28 15:11:49;;;;;;;16.42;12.25;;;;;;;;;;5070235;28;20510;-77
2022/01/28 15:14:17;;;;;;;17.27;12.50;;;;;;;;;;5056581;28;20020;-77
2022/01/28 15:16:44;;;;;;;19.00;12.90;;;;;;;;;;5072388;28;20028;-76
2022/01/28 15:19:11;;;;;;;22.30;12.85;;;;;;;;;;5071178;28;20035;-77
2022/01/28 15:21:37;;;;;;;26.35;13.00;;;;;;;;;;5069986;28;20035;-77
2022/01/28 15:24:04;;;;;;;18.75;12.68;;;;;;;;;;5069030;28;20099;-77
2022/01/28 15:26:31;;;;;;;19.55;12.35;;;;;;;;;;5070849;28;20062;-77
2022/01/28 15:29:09;;;;;;;17.05;12.20;;;;;;;;;;5071883;28;20025;-77
2022/01/28 15:36:54;;;;;;;19.63;13.45;;;;;;;;;;5070967;28;20029;-77
2022/01/28 15:39:21;;;;;;;18.35;12.98;;;;;;;;;;5070307;28;20021;-76
2022/01/28 15:41:47;;;;;;;20.63;12.95;;;;;;;;;;5071083;28;20039;-76
2022/01/28 15:44:13;;;;;;;17.95;12.18;;;;;;;;;;5070525;28;20032;-77
2022/01/28 15:46:40;;;;;;;18.92;13.38;;;;;;;;;;5073606;28;20020;-77
2022/01/28 15:49:07;;;;;;;20.17;13.93;;;;;;;;;;5071234;28;20039;-77
2022/01/28 15:51:34;;;;;;;23.02;14.13;;;;;;;;;;5070884;28;20024;-76
2022/01/28 15:54:00;;;;;;;20.75;13.63;;;;;;;;;;5071144;28;20024;-77